TWG43 EDDH-EDXW
Flight info
| Callsign | TWG43 |
|---|---|
| Flight time | 0h 39m |
| Altitude | 6000 |
| Route | TOPRA DCT BADOS DCT OLDIP |
| Aircraft | C208/L-DFGRVY/S |
Departure
| Time | 2026-05-04 14:36 |
|---|---|
| Airport | Hamburg Helmut Schmidt Airport (EDDH) |
Arrival
| Time | 2026-05-04 15:16 |
|---|---|
| Airport | Westerland Sylt Airport (EDXW) |
| Time | Latitude | Longitude | Altitude | Speed | Heading |
|---|---|---|---|---|---|
| 2026-05-04 14:17 | 53.62474 | 10.00438 | 47 ft | 0 kts | 243° |
| 2026-05-04 14:31 | 53.62470 | 10.00424 | 47 ft | 5 kts | 242° |
| 2026-05-04 14:32 | 53.62557 | 10.00315 | 47 ft | 5 kts | 335° |
| 2026-05-04 14:32 | 53.62576 | 10.00237 | 47 ft | 12 kts | 245° |
| 2026-05-04 14:32 | 53.62544 | 10.00114 | 45 ft | 11 kts | 248° |
| 2026-05-04 14:32 | 53.62561 | 10.00012 | 46 ft | 11 kts | 320° |
| 2026-05-04 14:33 | 53.62575 | 10.00000 | 46 ft | 0 kts | 333° |
| 2026-05-04 14:35 | 53.62609 | 9.99968 | 45 ft | 19 kts | 332° |
| 2026-05-04 14:35 | 53.62865 | 9.99747 | 44 ft | 62 kts | 333° |
| 2026-05-04 14:35 | 53.63338 | 9.99337 | 83 ft | 86 kts | 332° |
| 2026-05-04 14:35 | 53.63893 | 9.98860 | 211 ft | 97 kts | 331° |
| 2026-05-04 14:36 | 53.64515 | 9.98312 | 363 ft | 104 kts | 331° |
| 2026-05-04 14:36 | 53.65159 | 9.97763 | 571 ft | 102 kts | 332° |
| 2026-05-04 14:36 | 53.65795 | 9.97246 | 750 ft | 102 kts | 330° |
| 2026-05-04 14:36 | 53.66408 | 9.96685 | 928 ft | 101 kts | 328° |
| 2026-05-04 14:37 | 53.67040 | 9.96137 | 1124 ft | 100 kts | 328° |
| 2026-05-04 14:37 | 53.67662 | 9.95588 | 1322 ft | 102 kts | 328° |
| 2026-05-04 14:37 | 53.68306 | 9.95045 | 1514 ft | 109 kts | 330° |
| 2026-05-04 14:37 | 53.69010 | 9.94446 | 1690 ft | 117 kts | 329° |
| 2026-05-04 14:38 | 53.69757 | 9.93807 | 1855 ft | 123 kts | 329° |
| 2026-05-04 14:38 | 53.70534 | 9.93143 | 2027 ft | 127 kts | 329° |
| 2026-05-04 14:38 | 53.71280 | 9.92332 | 2187 ft | 128 kts | 307° |
| 2026-05-04 14:38 | 53.71622 | 9.90970 | 2363 ft | 128 kts | 276° |
| 2026-05-04 14:39 | 53.71479 | 9.89505 | 2524 ft | 128 kts | 251° |
| 2026-05-04 14:39 | 53.71192 | 9.88102 | 2727 ft | 125 kts | 253° |
| 2026-05-04 14:39 | 53.70921 | 9.86712 | 2928 ft | 124 kts | 252° |
| 2026-05-04 14:40 | 53.70382 | 9.83978 | 3329 ft | 122 kts | 253° |
| 2026-05-04 14:40 | 53.70114 | 9.82622 | 3525 ft | 122 kts | 253° |
| 2026-05-04 14:40 | 53.69843 | 9.81261 | 3723 ft | 122 kts | 253° |
| 2026-05-04 14:40 | 53.69596 | 9.79902 | 3919 ft | 121 kts | 263° |
| 2026-05-04 14:41 | 53.69887 | 9.78625 | 4113 ft | 124 kts | 311° |
| 2026-05-04 14:41 | 53.70632 | 9.77854 | 4315 ft | 127 kts | 328° |
| 2026-05-04 14:41 | 53.72186 | 9.76464 | 4724 ft | 126 kts | 324° |
| 2026-05-04 14:42 | 53.73713 | 9.75037 | 5128 ft | 125 kts | 324° |
| 2026-05-04 14:42 | 53.74460 | 9.74333 | 5325 ft | 124 kts | 324° |
| 2026-05-04 14:42 | 53.75218 | 9.73624 | 5524 ft | 124 kts | 324° |
| 2026-05-04 14:43 | 53.75976 | 9.72914 | 5728 ft | 124 kts | 324° |
| 2026-05-04 14:43 | 53.76484 | 9.72433 | 5864 ft | 123 kts | 324° |
| 2026-05-04 14:43 | 53.77503 | 9.71467 | 5978 ft | 134 kts | 324° |
| 2026-05-04 14:43 | 53.78352 | 9.70667 | 5994 ft | 145 kts | 324° |
| 2026-05-04 14:44 | 53.79255 | 9.69819 | 5990 ft | 152 kts | 325° |
| 2026-05-04 14:44 | 53.79887 | 9.69225 | 5995 ft | 155 kts | 325° |
| 2026-05-04 14:44 | 53.80843 | 9.68325 | 5987 ft | 159 kts | 325° |
| 2026-05-04 14:44 | 53.81813 | 9.67410 | 5986 ft | 161 kts | 326° |
| 2026-05-04 14:45 | 53.82785 | 9.66493 | 5984 ft | 163 kts | 326° |
| 2026-05-04 14:45 | 53.83776 | 9.65559 | 5987 ft | 163 kts | 326° |
| 2026-05-04 14:45 | 53.84772 | 9.64615 | 5986 ft | 164 kts | 326° |
| 2026-05-04 14:45 | 53.85769 | 9.63670 | 5986 ft | 165 kts | 326° |
| 2026-05-04 14:46 | 53.86772 | 9.62723 | 5982 ft | 165 kts | 325° |
| 2026-05-04 14:46 | 53.87769 | 9.61778 | 5980 ft | 164 kts | 325° |
| 2026-05-04 14:46 | 53.88761 | 9.60838 | 5979 ft | 163 kts | 325° |
| 2026-05-04 14:46 | 53.89748 | 9.59903 | 5990 ft | 162 kts | 325° |
| 2026-05-04 14:47 | 53.90732 | 9.58969 | 5982 ft | 162 kts | 325° |
| 2026-05-04 14:47 | 53.91716 | 9.58034 | 5981 ft | 162 kts | 325° |
| 2026-05-04 14:47 | 53.92699 | 9.57100 | 5979 ft | 162 kts | 324° |
| 2026-05-04 14:47 | 53.93679 | 9.56164 | 5978 ft | 161 kts | 324° |
| 2026-05-04 14:48 | 53.94655 | 9.55224 | 5976 ft | 162 kts | 324° |
| 2026-05-04 14:48 | 53.95633 | 9.54284 | 5983 ft | 162 kts | 324° |
| 2026-05-04 14:48 | 53.96614 | 9.53337 | 5975 ft | 162 kts | 324° |
| 2026-05-04 14:48 | 53.97592 | 9.52394 | 5969 ft | 162 kts | 324° |
| 2026-05-04 14:49 | 53.98572 | 9.51448 | 5974 ft | 162 kts | 324° |
| 2026-05-04 14:49 | 53.99551 | 9.50503 | 5976 ft | 162 kts | 324° |
| 2026-05-04 14:49 | 54.00534 | 9.49553 | 5989 ft | 163 kts | 324° |
| 2026-05-04 14:49 | 54.01526 | 9.48615 | 5976 ft | 163 kts | 326° |
| 2026-05-04 14:50 | 54.02520 | 9.47681 | 5986 ft | 163 kts | 324° |
| 2026-05-04 14:50 | 54.03491 | 9.46736 | 5981 ft | 163 kts | 324° |
| 2026-05-04 14:50 | 54.04487 | 9.45759 | 5975 ft | 163 kts | 324° |
| 2026-05-04 14:50 | 54.05458 | 9.44804 | 5980 ft | 163 kts | 324° |
| 2026-05-04 14:51 | 54.06442 | 9.43836 | 5972 ft | 163 kts | 324° |
| 2026-05-04 14:51 | 54.07425 | 9.42868 | 5972 ft | 163 kts | 324° |
| 2026-05-04 14:51 | 54.08408 | 9.41898 | 5977 ft | 163 kts | 324° |
| 2026-05-04 14:51 | 54.09389 | 9.40931 | 5969 ft | 163 kts | 324° |
| 2026-05-04 14:52 | 54.10371 | 9.39964 | 5976 ft | 163 kts | 324° |
| 2026-05-04 14:52 | 54.11351 | 9.38996 | 5971 ft | 163 kts | 324° |
| 2026-05-04 14:52 | 54.12329 | 9.38032 | 5972 ft | 163 kts | 324° |
| 2026-05-04 14:52 | 54.13309 | 9.37063 | 5979 ft | 162 kts | 324° |
| 2026-05-04 14:53 | 54.14286 | 9.36099 | 5980 ft | 162 kts | 324° |
| 2026-05-04 14:53 | 54.15261 | 9.35137 | 5987 ft | 161 kts | 323° |
| 2026-05-04 14:53 | 54.16219 | 9.34138 | 5985 ft | 161 kts | 324° |
| 2026-05-04 14:53 | 54.17199 | 9.33204 | 5985 ft | 161 kts | 324° |
| 2026-05-04 14:54 | 54.18156 | 9.32267 | 5985 ft | 160 kts | 323° |
| 2026-05-04 14:54 | 54.19125 | 9.31309 | 5985 ft | 160 kts | 323° |
| 2026-05-04 14:54 | 54.20087 | 9.30355 | 5984 ft | 160 kts | 323° |
| 2026-05-04 14:54 | 54.21051 | 9.29399 | 5984 ft | 160 kts | 323° |
| 2026-05-04 14:55 | 54.22018 | 9.28441 | 5983 ft | 160 kts | 323° |
| 2026-05-04 14:55 | 54.22985 | 9.27482 | 5983 ft | 161 kts | 323° |
| 2026-05-04 14:55 | 54.23952 | 9.26520 | 5982 ft | 161 kts | 323° |
| 2026-05-04 14:55 | 54.24916 | 9.25561 | 5981 ft | 160 kts | 323° |
| 2026-05-04 14:56 | 54.25879 | 9.24602 | 5982 ft | 160 kts | 323° |
| 2026-05-04 14:56 | 54.26847 | 9.23639 | 5982 ft | 161 kts | 324° |
| 2026-05-04 14:56 | 54.27819 | 9.22673 | 5982 ft | 162 kts | 324° |
| 2026-05-04 14:56 | 54.28793 | 9.21702 | 5982 ft | 162 kts | 324° |
| 2026-05-04 14:57 | 54.29764 | 9.20735 | 5982 ft | 161 kts | 324° |
| 2026-05-04 14:57 | 54.30722 | 9.19778 | 5978 ft | 161 kts | 323° |
| 2026-05-04 14:57 | 54.31693 | 9.18811 | 5978 ft | 161 kts | 323° |
| 2026-05-04 14:57 | 54.32663 | 9.17841 | 5986 ft | 162 kts | 323° |
| 2026-05-04 14:58 | 54.33633 | 9.16873 | 5988 ft | 162 kts | 323° |
| 2026-05-04 14:58 | 54.34607 | 9.15900 | 5987 ft | 162 kts | 323° |
| 2026-05-04 14:58 | 54.35578 | 9.14928 | 5988 ft | 162 kts | 323° |
| 2026-05-04 14:58 | 54.36551 | 9.13954 | 5987 ft | 162 kts | 323° |
| 2026-05-04 14:59 | 54.37429 | 9.12799 | 5989 ft | 157 kts | 308° |
| 2026-05-04 14:59 | 54.38186 | 9.11439 | 5989 ft | 158 kts | 309° |
| 2026-05-04 14:59 | 54.39730 | 9.08762 | 5991 ft | 158 kts | 309° |
| 2026-05-04 15:00 | 54.40499 | 9.07405 | 5990 ft | 159 kts | 309° |
| 2026-05-04 15:00 | 54.41276 | 9.06053 | 5993 ft | 159 kts | 309° |
| 2026-05-04 15:00 | 54.42052 | 9.04708 | 5996 ft | 158 kts | 310° |
| 2026-05-04 15:01 | 54.43593 | 9.02037 | 5990 ft | 159 kts | 310° |
| 2026-05-04 15:01 | 54.44370 | 9.00693 | 5995 ft | 158 kts | 310° |
| 2026-05-04 15:01 | 54.45143 | 8.99349 | 5995 ft | 158 kts | 310° |
| 2026-05-04 15:01 | 54.45917 | 8.98005 | 5995 ft | 158 kts | 310° |
| 2026-05-04 15:02 | 54.46690 | 8.96663 | 5994 ft | 158 kts | 310° |
| 2026-05-04 15:02 | 54.47463 | 8.95318 | 5994 ft | 158 kts | 310° |
| 2026-05-04 15:02 | 54.48237 | 8.93972 | 5993 ft | 158 kts | 310° |
| 2026-05-04 15:02 | 54.49009 | 8.92628 | 5993 ft | 158 kts | 310° |
| 2026-05-04 15:03 | 54.49782 | 8.91282 | 5992 ft | 158 kts | 310° |
| 2026-05-04 15:03 | 54.50553 | 8.89939 | 5991 ft | 158 kts | 310° |
| 2026-05-04 15:03 | 54.51324 | 8.88595 | 5991 ft | 158 kts | 310° |
| 2026-05-04 15:03 | 54.52097 | 8.87246 | 5991 ft | 158 kts | 310° |
| 2026-05-04 15:04 | 54.52868 | 8.85901 | 5991 ft | 158 kts | 309° |
| 2026-05-04 15:04 | 54.53628 | 8.84575 | 5991 ft | 157 kts | 309° |
| 2026-05-04 15:04 | 54.54395 | 8.83231 | 5989 ft | 157 kts | 309° |
| 2026-05-04 15:04 | 54.55161 | 8.81895 | 5994 ft | 157 kts | 309° |
| 2026-05-04 15:05 | 54.55927 | 8.80556 | 5993 ft | 157 kts | 309° |
| 2026-05-04 15:05 | 54.56691 | 8.79217 | 5992 ft | 156 kts | 309° |
| 2026-05-04 15:05 | 54.57453 | 8.77884 | 5992 ft | 156 kts | 309° |
| 2026-05-04 15:05 | 54.58220 | 8.76535 | 5916 ft | 160 kts | 309° |
| 2026-05-04 15:06 | 54.59014 | 8.75146 | 5793 ft | 165 kts | 309° |
| 2026-05-04 15:06 | 54.59824 | 8.73724 | 5669 ft | 167 kts | 310° |
| 2026-05-04 15:06 | 54.60643 | 8.72288 | 5538 ft | 169 kts | 310° |
| 2026-05-04 15:07 | 54.62382 | 8.69535 | 5291 ft | 173 kts | 321° |
| 2026-05-04 15:07 | 54.63373 | 8.68368 | 5166 ft | 173 kts | 320° |
| 2026-05-04 15:07 | 54.64360 | 8.67173 | 5038 ft | 173 kts | 320° |
| 2026-05-04 15:07 | 54.65344 | 8.65971 | 4914 ft | 173 kts | 320° |
| 2026-05-04 15:08 | 54.66328 | 8.64766 | 4764 ft | 173 kts | 320° |
| 2026-05-04 15:08 | 54.67311 | 8.63565 | 4616 ft | 173 kts | 320° |
| 2026-05-04 15:08 | 54.68284 | 8.62375 | 4460 ft | 172 kts | 320° |
| 2026-05-04 15:08 | 54.69252 | 8.61190 | 4305 ft | 171 kts | 320° |
| 2026-05-04 15:09 | 54.70225 | 8.60001 | 4151 ft | 171 kts | 320° |
| 2026-05-04 15:09 | 54.71195 | 8.58813 | 4005 ft | 170 kts | 320° |
| 2026-05-04 15:09 | 54.72160 | 8.57631 | 3854 ft | 170 kts | 320° |
| 2026-05-04 15:10 | 54.74087 | 8.55269 | 3562 ft | 168 kts | 320° |
| 2026-05-04 15:10 | 54.75036 | 8.54105 | 3435 ft | 167 kts | 320° |
| 2026-05-04 15:10 | 54.76924 | 8.51787 | 3178 ft | 166 kts | 320° |
| 2026-05-04 15:11 | 54.77864 | 8.50631 | 3049 ft | 165 kts | 321° |
| 2026-05-04 15:11 | 54.78796 | 8.49487 | 2925 ft | 165 kts | 321° |
| 2026-05-04 15:11 | 54.79745 | 8.48319 | 2672 ft | 169 kts | 322° |
| 2026-05-04 15:11 | 54.80690 | 8.47183 | 2448 ft | 161 kts | 322° |
| 2026-05-04 15:12 | 54.81591 | 8.46077 | 2228 ft | 157 kts | 321° |
| 2026-05-04 15:12 | 54.82472 | 8.44985 | 2011 ft | 154 kts | 322° |
| 2026-05-04 15:12 | 54.83339 | 8.43908 | 1799 ft | 152 kts | 323° |
| 2026-05-04 15:12 | 54.84202 | 8.42847 | 1586 ft | 152 kts | 323° |
| 2026-05-04 15:13 | 54.85063 | 8.41787 | 1390 ft | 152 kts | 323° |
| 2026-05-04 15:13 | 54.85880 | 8.40783 | 1167 ft | 135 kts | 323° |
| 2026-05-04 15:13 | 54.86598 | 8.39903 | 985 ft | 120 kts | 323° |
| 2026-05-04 15:13 | 54.87230 | 8.39116 | 833 ft | 104 kts | 323° |
| 2026-05-04 15:14 | 54.87762 | 8.38453 | 697 ft | 85 kts | 322° |
| 2026-05-04 15:14 | 54.88213 | 8.37896 | 570 ft | 75 kts | 324° |
| 2026-05-04 15:14 | 54.88632 | 8.37402 | 512 ft | 71 kts | 324° |
| 2026-05-04 15:14 | 54.89035 | 8.36900 | 436 ft | 72 kts | 322° |
| 2026-05-04 15:15 | 54.89443 | 8.36381 | 354 ft | 73 kts | 324° |
| 2026-05-04 15:15 | 54.89853 | 8.35875 | 245 ft | 71 kts | 322° |
| 2026-05-04 15:15 | 54.90268 | 8.35366 | 104 ft | 74 kts | 324° |
| 2026-05-04 15:16 | 54.90996 | 8.34457 | 36 ft | 42 kts | 322° |
| 2026-05-04 15:16 | 54.91164 | 8.34245 | 35 ft | 24 kts | 323° |
| 2026-05-04 15:16 | 54.91249 | 8.33826 | 33 ft | 27 kts | 240° |
| 2026-05-04 15:17 | 54.91142 | 8.33513 | 31 ft | 34 kts | 240° |
| 2026-05-04 15:17 | 54.91051 | 8.33243 | 32 ft | 0 kts | 241° |
| 2026-05-04 15:17 | 54.91048 | 8.33215 | 32 ft | 7 kts | 284° |
| 2026-05-04 15:18 | 54.91134 | 8.33180 | 33 ft | 19 kts | 359° |
| 2026-05-04 15:18 | 54.91272 | 8.33182 | 28 ft | 16 kts | 12° |
| 2026-05-04 15:18 | 54.91374 | 8.33210 | 27 ft | 14 kts | 319° |
| 2026-05-04 15:19 | 54.91385 | 8.33140 | 27 ft | 0 kts | 269° |